sensor_id;sensor_type;location;lat;lon;timestamp;P1;durP1;ratioP1;P2;durP2;ratioP2
34767;SDS011;21755;43.608;1.236;2023-04-29T00:00:00;8.10;;;5.18;;
34767;SDS011;21755;43.608;1.236;2023-04-29T00:02:26;8.18;;;4.72;;
34767;SDS011;21755;43.608;1.236;2023-04-29T00:04:52;10.32;;;5.40;;
34767;SDS011;21755;43.608;1.236;2023-04-29T00:07:18;11.02;;;5.50;;
34767;SDS011;21755;43.608;1.236;2023-04-29T00:09:44;8.13;;;5.35;;
34767;SDS011;21755;43.608;1.236;2023-04-29T00:12:10;7.32;;;5.20;;
34767;SDS011;21755;43.608;1.236;2023-04-29T00:14:36;11.25;;;5.20;;
34767;SDS011;21755;43.608;1.236;2023-04-29T00:17:02;8.68;;;4.93;;
34767;SDS011;21755;43.608;1.236;2023-04-29T00:19:28;14.40;;;6.07;;
34767;SDS011;21755;43.608;1.236;2023-04-29T00:21:54;11.52;;;6.00;;
34767;SDS011;21755;43.608;1.236;2023-04-29T00:24:20;14.18;;;5.70;;
34767;SDS011;21755;43.608;1.236;2023-04-29T00:26:46;10.30;;;5.72;;
34767;SDS011;21755;43.608;1.236;2023-04-29T00:29:11;12.82;;;5.60;;
34767;SDS011;21755;43.608;1.236;2023-04-29T00:31:37;12.63;;;5.72;;
34767;SDS011;21755;43.608;1.236;2023-04-29T00:34:03;8.88;;;5.45;;
34767;SDS011;21755;43.608;1.236;2023-04-29T00:36:29;9.50;;;6.40;;
34767;SDS011;21755;43.608;1.236;2023-04-29T00:38:56;8.95;;;6.13;;
34767;SDS011;21755;43.608;1.236;2023-04-29T00:41:22;10.35;;;6.50;;
34767;SDS011;21755;43.608;1.236;2023-04-29T00:43:48;16.92;;;6.45;;
34767;SDS011;21755;43.608;1.236;2023-04-29T00:46:14;14.35;;;5.72;;
34767;SDS011;21755;43.608;1.236;2023-04-29T00:48:40;12.18;;;6.43;;
34767;SDS011;21755;43.608;1.236;2023-04-29T00:51:06;8.82;;;5.43;;
34767;SDS011;21755;43.608;1.236;2023-04-29T00:53:32;9.18;;;5.50;;
34767;SDS011;21755;43.608;1.236;2023-04-29T00:55:59;10.88;;;5.88;;
34767;SDS011;21755;43.608;1.236;2023-04-29T00:58:27;15.77;;;7.15;;
34767;SDS011;21755;43.608;1.236;2023-04-29T01:01:01;11.65;;;5.88;;
34767;SDS011;21755;43.608;1.236;2023-04-29T01:09:24;16.80;;;7.05;;
34767;SDS011;21755;43.608;1.236;2023-04-29T01:14:48;9.48;;;5.53;;
34767;SDS011;21755;43.608;1.236;2023-04-29T01:17:40;8.70;;;5.47;;
34767;SDS011;21755;43.608;1.236;2023-04-29T01:20:26;9.35;;;5.50;;
34767;SDS011;21755;43.608;1.236;2023-04-29T01:22:52;11.05;;;5.63;;
34767;SDS011;21755;43.608;1.236;2023-04-29T01:25:18;11.15;;;6.18;;
34767;SDS011;21755;43.608;1.236;2023-04-29T01:30:44;13.52;;;6.13;;
34767;SDS011;21755;43.608;1.236;2023-04-29T01:33:35;12.27;;;5.72;;
34767;SDS011;21755;43.608;1.236;2023-04-29T01:41:50;12.98;;;5.68;;
34767;SDS011;21755;43.608;1.236;2023-04-29T01:46:52;10.27;;;5.40;;
34767;SDS011;21755;43.608;1.236;2023-04-29T01:49:24;10.65;;;5.50;;
34767;SDS011;21755;43.608;1.236;2023-04-29T01:51:54;8.05;;;5.43;;
34767;SDS011;21755;43.608;1.236;2023-04-29T01:54:20;12.77;;;6.13;;
34767;SDS011;21755;43.608;1.236;2023-04-29T01:56:49;15.45;;;5.47;;
34767;SDS011;21755;43.608;1.236;2023-04-29T01:59:16;12.27;;;5.55;;
34767;SDS011;21755;43.608;1.236;2023-04-29T02:01:42;12.63;;;5.60;;
34767;SDS011;21755;43.608;1.236;2023-04-29T02:04:07;13.52;;;5.55;;
34767;SDS011;21755;43.608;1.236;2023-04-29T02:06:33;8.77;;;5.25;;
34767;SDS011;21755;43.608;1.236;2023-04-29T02:08:59;8.55;;;5.60;;
34767;SDS011;21755;43.608;1.236;2023-04-29T02:11:25;13.15;;;5.45;;
34767;SDS011;21755;43.608;1.236;2023-04-29T02:13:51;10.27;;;5.35;;
34767;SDS011;21755;43.608;1.236;2023-04-29T02:16:17;8.65;;;5.72;;
34767;SDS011;21755;43.608;1.236;2023-04-29T02:18:43;12.90;;;5.03;;
34767;SDS011;21755;43.608;1.236;2023-04-29T02:21:09;13.68;;;5.07;;
34767;SDS011;21755;43.608;1.236;2023-04-29T02:23:36;10.98;;;5.05;;
34767;SDS011;21755;43.608;1.236;2023-04-29T02:26:02;10.38;;;5.78;;
34767;SDS011;21755;43.608;1.236;2023-04-29T02:28:33;13.80;;;5.22;;
34767;SDS011;21755;43.608;1.236;2023-04-29T02:30:59;11.98;;;5.72;;
34767;SDS011;21755;43.608;1.236;2023-04-29T02:33:25;10.85;;;5.10;;
34767;SDS011;21755;43.608;1.236;2023-04-29T02:35:51;9.38;;;5.45;;
34767;SDS011;21755;43.608;1.236;2023-04-29T02:38:17;11.75;;;5.43;;
34767;SDS011;21755;43.608;1.236;2023-04-29T02:40:43;12.38;;;6.50;;
34767;SDS011;21755;43.608;1.236;2023-04-29T02:43:10;14.30;;;5.80;;
34767;SDS011;21755;43.608;1.236;2023-04-29T02:45:36;16.13;;;6.15;;
34767;SDS011;21755;43.608;1.236;2023-04-29T02:48:03;12.05;;;6.28;;
34767;SDS011;21755;43.608;1.236;2023-04-29T02:50:30;12.20;;;6.40;;
34767;SDS011;21755;43.608;1.236;2023-04-29T02:52:56;12.65;;;6.75;;
34767;SDS011;21755;43.608;1.236;2023-04-29T02:55:22;16.17;;;7.18;;
34767;SDS011;21755;43.608;1.236;2023-04-29T02:57:48;17.05;;;7.53;;
34767;SDS011;21755;43.608;1.236;2023-04-29T03:00:14;13.90;;;6.60;;
34767;SDS011;21755;43.608;1.236;2023-04-29T03:02:40;17.05;;;6.70;;
34767;SDS011;21755;43.608;1.236;2023-04-29T03:05:06;13.13;;;6.82;;
34767;SDS011;21755;43.608;1.236;2023-04-29T03:07:32;19.73;;;7.85;;
34767;SDS011;21755;43.608;1.236;2023-04-29T03:09:58;18.85;;;7.07;;
34767;SDS011;21755;43.608;1.236;2023-04-29T03:12:24;12.05;;;7.03;;
34767;SDS011;21755;43.608;1.236;2023-04-29T03:14:50;12.32;;;6.63;;
34767;SDS011;21755;43.608;1.236;2023-04-29T03:17:16;16.85;;;7.63;;
34767;SDS011;21755;43.608;1.236;2023-04-29T03:19:42;17.23;;;7.82;;
34767;SDS011;21755;43.608;1.236;2023-04-29T03:22:08;12.07;;;7.32;;
34767;SDS011;21755;43.608;1.236;2023-04-29T03:24:35;15.77;;;8.60;;
34767;SDS011;21755;43.608;1.236;2023-04-29T03:27:02;12.02;;;7.43;;
34767;SDS011;21755;43.608;1.236;2023-04-29T03:29:29;15.65;;;8.73;;
34767;SDS011;21755;43.608;1.236;2023-04-29T03:31:55;15.70;;;8.40;;
34767;SDS011;21755;43.608;1.236;2023-04-29T03:34:22;18.45;;;7.65;;
34767;SDS011;21755;43.608;1.236;2023-04-29T03:36:48;17.17;;;8.57;;
34767;SDS011;21755;43.608;1.236;2023-04-29T03:39:15;15.63;;;8.07;;
34767;SDS011;21755;43.608;1.236;2023-04-29T03:41:42;16.75;;;8.20;;
34767;SDS011;21755;43.608;1.236;2023-04-29T03:44:08;20.58;;;8.80;;
34767;SDS011;21755;43.608;1.236;2023-04-29T03:46:33;17.30;;;8.85;;
34767;SDS011;21755;43.608;1.236;2023-04-29T03:48:59;16.85;;;9.10;;
34767;SDS011;21755;43.608;1.236;2023-04-29T03:51:25;15.20;;;8.23;;
34767;SDS011;21755;43.608;1.236;2023-04-29T03:53:52;17.23;;;8.60;;
34767;SDS011;21755;43.608;1.236;2023-04-29T03:56:20;14.85;;;8.75;;
34767;SDS011;21755;43.608;1.236;2023-04-29T03:58:47;14.95;;;8.35;;
34767;SDS011;21755;43.608;1.236;2023-04-29T04:01:13;14.52;;;8.10;;
34767;SDS011;21755;43.608;1.236;2023-04-29T04:03:39;20.23;;;9.18;;
34767;SDS011;21755;43.608;1.236;2023-04-29T04:06:07;14.27;;;9.45;;
34767;SDS011;21755;43.608;1.236;2023-04-29T04:08:33;14.32;;;9.48;;
34767;SDS011;21755;43.608;1.236;2023-04-29T04:10:59;19.98;;;10.32;;
34767;SDS011;21755;43.608;1.236;2023-04-29T04:13:27;15.93;;;9.05;;
34767;SDS011;21755;43.608;1.236;2023-04-29T04:15:53;21.85;;;9.68;;
34767;SDS011;21755;43.608;1.236;2023-04-29T04:18:19;17.63;;;10.60;;
34767;SDS011;21755;43.608;1.236;2023-04-29T04:20:45;20.67;;;10.55;;
34767;SDS011;21755;43.608;1.236;2023-04-29T04:23:11;21.60;;;11.38;;
34767;SDS011;21755;43.608;1.236;2023-04-29T04:25:37;24.60;;;12.70;;
34767;SDS011;21755;43.608;1.236;2023-04-29T04:28:09;21.67;;;11.38;;
34767;SDS011;21755;43.608;1.236;2023-04-29T04:30:35;22.80;;;13.38;;
34767;SDS011;21755;43.608;1.236;2023-04-29T04:33:00;21.30;;;12.90;;
34767;SDS011;21755;43.608;1.236;2023-04-29T04:35:26;19.42;;;11.77;;
34767;SDS011;21755;43.608;1.236;2023-04-29T04:37:53;22.88;;;12.73;;
34767;SDS011;21755;43.608;1.236;2023-04-29T04:40:18;29.55;;;14.02;;
34767;SDS011;21755;43.608;1.236;2023-04-29T04:42:45;24.55;;;14.02;;
34767;SDS011;21755;43.608;1.236;2023-04-29T04:45:10;29.40;;;14.73;;
34767;SDS011;21755;43.608;1.236;2023-04-29T04:47:36;29.95;;;14.90;;
34767;SDS011;21755;43.608;1.236;2023-04-29T04:50:05;27.15;;;14.32;;
34767;SDS011;21755;43.608;1.236;2023-04-29T04:52:31;26.45;;;14.85;;
34767;SDS011;21755;43.608;1.236;2023-04-29T04:54:57;35.17;;;16.70;;
34767;SDS011;21755;43.608;1.236;2023-04-29T04:57:23;35.92;;;18.27;;
34767;SDS011;21755;43.608;1.236;2023-04-29T04:59:49;39.25;;;16.42;;
34767;SDS011;21755;43.608;1.236;2023-04-29T05:02:15;41.78;;;16.52;;
34767;SDS011;21755;43.608;1.236;2023-04-29T05:04:41;43.67;;;16.75;;
34767;SDS011;21755;43.608;1.236;2023-04-29T05:07:07;38.17;;;17.15;;
34767;SDS011;21755;43.608;1.236;2023-04-29T05:09:33;38.60;;;17.05;;
34767;SDS011;21755;43.608;1.236;2023-04-29T05:11:59;32.40;;;16.88;;
34767;SDS011;21755;43.608;1.236;2023-04-29T05:14:25;34.92;;;16.90;;
34767;SDS011;21755;43.608;1.236;2023-04-29T05:16:51;30.77;;;16.63;;
34767;SDS011;21755;43.608;1.236;2023-04-29T05:19:18;30.95;;;16.77;;
34767;SDS011;21755;43.608;1.236;2023-04-29T05:21:44;37.90;;;16.20;;
34767;SDS011;21755;43.608;1.236;2023-04-29T05:24:09;32.35;;;15.90;;
34767;SDS011;21755;43.608;1.236;2023-04-29T05:26:35;32.88;;;15.90;;
34767;SDS011;21755;43.608;1.236;2023-04-29T05:29:02;32.60;;;17.27;;
34767;SDS011;21755;43.608;1.236;2023-04-29T05:31:28;33.70;;;18.25;;
34767;SDS011;21755;43.608;1.236;2023-04-29T05:33:53;27.45;;;15.60;;
34767;SDS011;21755;43.608;1.236;2023-04-29T05:36:19;32.47;;;15.75;;
34767;SDS011;21755;43.608;1.236;2023-04-29T05:38:45;31.08;;;15.73;;
34767;SDS011;21755;43.608;1.236;2023-04-29T05:41:11;30.02;;;15.68;;
34767;SDS011;21755;43.608;1.236;2023-04-29T05:43:38;30.20;;;15.95;;
34767;SDS011;21755;43.608;1.236;2023-04-29T05:46:04;32.55;;;15.68;;
34767;SDS011;21755;43.608;1.236;2023-04-29T05:48:30;27.88;;;15.57;;
34767;SDS011;21755;43.608;1.236;2023-04-29T05:50:56;30.45;;;14.82;;
34767;SDS011;21755;43.608;1.236;2023-04-29T05:53:22;31.63;;;15.27;;
34767;SDS011;21755;43.608;1.236;2023-04-29T05:55:48;26.60;;;14.93;;
34767;SDS011;21755;43.608;1.236;2023-04-29T05:58:15;26.70;;;14.02;;
34767;SDS011;21755;43.608;1.236;2023-04-29T06:00:41;26.00;;;14.45;;
34767;SDS011;21755;43.608;1.236;2023-04-29T06:03:08;28.70;;;14.63;;
34767;SDS011;21755;43.608;1.236;2023-04-29T06:05:36;31.00;;;14.70;;
34767;SDS011;21755;43.608;1.236;2023-04-29T06:08:02;29.70;;;14.70;;
34767;SDS011;21755;43.608;1.236;2023-04-29T06:10:29;27.95;;;14.70;;
34767;SDS011;21755;43.608;1.236;2023-04-29T06:12:56;34.92;;;15.38;;
34767;SDS011;21755;43.608;1.236;2023-04-29T06:15:22;31.20;;;15.13;;
34767;SDS011;21755;43.608;1.236;2023-04-29T06:17:48;30.10;;;15.55;;
34767;SDS011;21755;43.608;1.236;2023-04-29T06:20:13;32.45;;;14.98;;
34767;SDS011;21755;43.608;1.236;2023-04-29T06:22:39;30.70;;;14.18;;
34767;SDS011;21755;43.608;1.236;2023-04-29T06:25:05;33.80;;;15.85;;
34767;SDS011;21755;43.608;1.236;2023-04-29T06:27:31;27.83;;;15.13;;
34767;SDS011;21755;43.608;1.236;2023-04-29T06:29:57;30.13;;;14.93;;
34767;SDS011;21755;43.608;1.236;2023-04-29T06:32:23;27.65;;;13.43;;
34767;SDS011;21755;43.608;1.236;2023-04-29T06:34:49;29.95;;;15.07;;
34767;SDS011;21755;43.608;1.236;2023-04-29T06:37:15;29.48;;;15.27;;
34767;SDS011;21755;43.608;1.236;2023-04-29T06:39:41;35.45;;;16.05;;
34767;SDS011;21755;43.608;1.236;2023-04-29T06:42:07;28.80;;;14.48;;
34767;SDS011;21755;43.608;1.236;2023-04-29T06:44:33;25.55;;;13.95;;
34767;SDS011;21755;43.608;1.236;2023-04-29T06:46:58;24.23;;;13.18;;
34767;SDS011;21755;43.608;1.236;2023-04-29T06:49:24;31.98;;;15.10;;
34767;SDS011;21755;43.608;1.236;2023-04-29T06:51:50;30.20;;;14.63;;
34767;SDS011;21755;43.608;1.236;2023-04-29T06:54:16;26.75;;;14.30;;
34767;SDS011;21755;43.608;1.236;2023-04-29T06:56:42;28.35;;;13.93;;
34767;SDS011;21755;43.608;1.236;2023-04-29T06:59:08;25.75;;;12.80;;
34767;SDS011;21755;43.608;1.236;2023-04-29T07:01:36;22.83;;;13.15;;
34767;SDS011;21755;43.608;1.236;2023-04-29T07:04:03;30.90;;;12.98;;
34767;SDS011;21755;43.608;1.236;2023-04-29T07:06:29;27.38;;;13.52;;
34767;SDS011;21755;43.608;1.236;2023-04-29T07:08:55;27.85;;;13.98;;
34767;SDS011;21755;43.608;1.236;2023-04-29T07:11:21;25.23;;;11.73;;
34767;SDS011;21755;43.608;1.236;2023-04-29T07:13:49;22.17;;;11.18;;
34767;SDS011;21755;43.608;1.236;2023-04-29T07:16:17;18.48;;;10.27;;
34767;SDS011;21755;43.608;1.236;2023-04-29T07:18:50;19.73;;;10.75;;
34767;SDS011;21755;43.608;1.236;2023-04-29T07:21:16;17.00;;;9.27;;
34767;SDS011;21755;43.608;1.236;2023-04-29T07:23:42;15.65;;;8.57;;
34767;SDS011;21755;43.608;1.236;2023-04-29T07:26:08;14.82;;;8.40;;
34767;SDS011;21755;43.608;1.236;2023-04-29T07:28:37;13.88;;;8.25;;
34767;SDS011;21755;43.608;1.236;2023-04-29T07:31:04;18.23;;;8.27;;
34767;SDS011;21755;43.608;1.236;2023-04-29T07:33:31;13.20;;;7.80;;
34767;SDS011;21755;43.608;1.236;2023-04-29T07:35:57;16.17;;;7.75;;
34767;SDS011;21755;43.608;1.236;2023-04-29T07:38:23;9.70;;;6.85;;
34767;SDS011;21755;43.608;1.236;2023-04-29T07:40:50;16.50;;;8.45;;
34767;SDS011;21755;43.608;1.236;2023-04-29T07:43:16;17.27;;;8.05;;
34767;SDS011;21755;43.608;1.236;2023-04-29T07:45:42;18.17;;;8.50;;
34767;SDS011;21755;43.608;1.236;2023-04-29T07:48:08;16.35;;;8.60;;
34767;SDS011;21755;43.608;1.236;2023-04-29T07:50:34;14.88;;;8.43;;
34767;SDS011;21755;43.608;1.236;2023-04-29T07:53:03;21.73;;;9.00;;
34767;SDS011;21755;43.608;1.236;2023-04-29T07:55:29;16.63;;;8.15;;
34767;SDS011;21755;43.608;1.236;2023-04-29T07:57:56;17.17;;;8.43;;
34767;SDS011;21755;43.608;1.236;2023-04-29T08:00:22;19.70;;;8.85;;
34767;SDS011;21755;43.608;1.236;2023-04-29T08:02:52;21.02;;;9.98;;
34767;SDS011;21755;43.608;1.236;2023-04-29T08:05:18;21.00;;;9.02;;
34767;SDS011;21755;43.608;1.236;2023-04-29T08:07:45;21.30;;;9.43;;
34767;SDS011;21755;43.608;1.236;2023-04-29T08:10:13;19.83;;;9.93;;
34767;SDS011;21755;43.608;1.236;2023-04-29T08:12:39;16.48;;;9.57;;
34767;SDS011;21755;43.608;1.236;2023-04-29T08:15:05;19.05;;;9.25;;
34767;SDS011;21755;43.608;1.236;2023-04-29T08:17:32;22.88;;;10.00;;
34767;SDS011;21755;43.608;1.236;2023-04-29T08:19:58;19.08;;;9.85;;
34767;SDS011;21755;43.608;1.236;2023-04-29T08:22:24;21.63;;;9.82;;
34767;SDS011;21755;43.608;1.236;2023-04-29T08:24:50;17.85;;;9.13;;
34767;SDS011;21755;43.608;1.236;2023-04-29T08:27:16;23.75;;;9.77;;
34767;SDS011;21755;43.608;1.236;2023-04-29T08:29:42;15.60;;;8.65;;
34767;SDS011;21755;43.608;1.236;2023-04-29T08:32:08;16.73;;;8.65;;
34767;SDS011;21755;43.608;1.236;2023-04-29T08:34:33;14.57;;;7.30;;
34767;SDS011;21755;43.608;1.236;2023-04-29T08:37:00;14.00;;;7.03;;
34767;SDS011;21755;43.608;1.236;2023-04-29T08:39:27;14.00;;;7.78;;
34767;SDS011;21755;43.608;1.236;2023-04-29T08:41:57;11.75;;;6.50;;
34767;SDS011;21755;43.608;1.236;2023-04-29T08:44:27;17.63;;;7.03;;
34767;SDS011;21755;43.608;1.236;2023-04-29T08:46:54;12.95;;;6.47;;
34767;SDS011;21755;43.608;1.236;2023-04-29T08:49:21;16.80;;;7.82;;
34767;SDS011;21755;43.608;1.236;2023-04-29T08:51:50;12.00;;;6.32;;
34767;SDS011;21755;43.608;1.236;2023-04-29T08:54:16;12.77;;;6.57;;
34767;SDS011;21755;43.608;1.236;2023-04-29T08:56:43;20.10;;;8.27;;
34767;SDS011;21755;43.608;1.236;2023-04-29T08:59:12;20.40;;;7.97;;
34767;SDS011;21755;43.608;1.236;2023-04-29T09:01:40;13.10;;;7.82;;
34767;SDS011;21755;43.608;1.236;2023-04-29T09:07:01;13.23;;;7.00;;
34767;SDS011;21755;43.608;1.236;2023-04-29T09:09:30;21.30;;;7.78;;
34767;SDS011;21755;43.608;1.236;2023-04-29T09:11:57;12.02;;;7.53;;
34767;SDS011;21755;43.608;1.236;2023-04-29T09:14:23;16.10;;;7.55;;
34767;SDS011;21755;43.608;1.236;2023-04-29T09:16:49;11.38;;;6.57;;
34767;SDS011;21755;43.608;1.236;2023-04-29T09:19:28;12.90;;;7.57;;
34767;SDS011;21755;43.608;1.236;2023-04-29T09:21:59;14.93;;;8.13;;
34767;SDS011;21755;43.608;1.236;2023-04-29T09:24:29;11.88;;;7.53;;
34767;SDS011;21755;43.608;1.236;2023-04-29T09:26:56;16.90;;;7.53;;
34767;SDS011;21755;43.608;1.236;2023-04-29T09:29:23;10.10;;;6.47;;
34767;SDS011;21755;43.608;1.236;2023-04-29T09:31:49;13.07;;;7.28;;
34767;SDS011;21755;43.608;1.236;2023-04-29T09:34:17;15.80;;;8.48;;
34767;SDS011;21755;43.608;1.236;2023-04-29T09:36:55;13.68;;;7.40;;
34767;SDS011;21755;43.608;1.236;2023-04-29T09:39:23;14.70;;;7.35;;
34767;SDS011;21755;43.608;1.236;2023-04-29T09:44:19;14.32;;;6.93;;
34767;SDS011;21755;43.608;1.236;2023-04-29T09:47:08;12.05;;;6.40;;
34767;SDS011;21755;43.608;1.236;2023-04-29T09:49:38;12.40;;;7.15;;
34767;SDS011;21755;43.608;1.236;2023-04-29T09:54:34;11.18;;;6.47;;
34767;SDS011;21755;43.608;1.236;2023-04-29T09:57:01;15.55;;;6.78;;
34767;SDS011;21755;43.608;1.236;2023-04-29T09:59:31;15.43;;;7.45;;
34767;SDS011;21755;43.608;1.236;2023-04-29T10:02:00;12.45;;;6.50;;
34767;SDS011;21755;43.608;1.236;2023-04-29T10:04:31;9.75;;;6.45;;
34767;SDS011;21755;43.608;1.236;2023-04-29T10:06:59;10.85;;;6.22;;
34767;SDS011;21755;43.608;1.236;2023-04-29T10:09:26;9.70;;;5.80;;
34767;SDS011;21755;43.608;1.236;2023-04-29T10:11:52;10.93;;;6.15;;
34767;SDS011;21755;43.608;1.236;2023-04-29T10:14:22;12.35;;;6.82;;
34767;SDS011;21755;43.608;1.236;2023-04-29T10:19:25;12.07;;;6.47;;
34767;SDS011;21755;43.608;1.236;2023-04-29T10:21:59;9.90;;;5.97;;
34767;SDS011;21755;43.608;1.236;2023-04-29T10:26:59;10.98;;;5.50;;
34767;SDS011;21755;43.608;1.236;2023-04-29T10:29:26;12.45;;;6.25;;
34767;SDS011;21755;43.608;1.236;2023-04-29T10:31:56;12.27;;;6.22;;
34767;SDS011;21755;43.608;1.236;2023-04-29T10:34:23;14.25;;;6.10;;
34767;SDS011;21755;43.608;1.236;2023-04-29T10:36:50;14.07;;;6.65;;
34767;SDS011;21755;43.608;1.236;2023-04-29T10:39:21;10.95;;;5.50;;
34767;SDS011;21755;43.608;1.236;2023-04-29T10:41:54;9.52;;;5.90;;
34767;SDS011;21755;43.608;1.236;2023-04-29T10:44:21;11.27;;;5.68;;
34767;SDS011;21755;43.608;1.236;2023-04-29T10:46:48;8.85;;;5.97;;
34767;SDS011;21755;43.608;1.236;2023-04-29T10:49:32;10.35;;;6.07;;
34767;SDS011;21755;43.608;1.236;2023-04-29T10:52:02;13.82;;;6.28;;
34767;SDS011;21755;43.608;1.236;2023-04-29T10:54:28;12.35;;;6.57;;
34767;SDS011;21755;43.608;1.236;2023-04-29T10:56:54;12.07;;;5.65;;
34767;SDS011;21755;43.608;1.236;2023-04-29T10:59:21;16.48;;;6.60;;
34767;SDS011;21755;43.608;1.236;2023-04-29T11:02:06;7.30;;;4.90;;
34767;SDS011;21755;43.608;1.236;2023-04-29T11:04:34;14.85;;;6.35;;
34767;SDS011;21755;43.608;1.236;2023-04-29T11:07:33;9.05;;;5.25;;
34767;SDS011;21755;43.608;1.236;2023-04-29T11:10:00;13.80;;;6.05;;
34767;SDS011;21755;43.608;1.236;2023-04-29T11:12:27;11.63;;;6.50;;
34767;SDS011;21755;43.608;1.236;2023-04-29T11:14:53;13.93;;;5.18;;
34767;SDS011;21755;43.608;1.236;2023-04-29T11:17:27;10.20;;;6.10;;
34767;SDS011;21755;43.608;1.236;2023-04-29T11:20:03;8.43;;;5.70;;
34767;SDS011;21755;43.608;1.236;2023-04-29T11:22:35;9.88;;;5.63;;
34767;SDS011;21755;43.608;1.236;2023-04-29T11:25:05;7.55;;;5.55;;
34767;SDS011;21755;43.608;1.236;2023-04-29T11:27:33;8.57;;;5.50;;
34767;SDS011;21755;43.608;1.236;2023-04-29T11:30:01;9.45;;;6.30;;
34767;SDS011;21755;43.608;1.236;2023-04-29T11:32:36;8.40;;;5.97;;
34767;SDS011;21755;43.608;1.236;2023-04-29T11:37:34;10.73;;;5.90;;
34767;SDS011;21755;43.608;1.236;2023-04-29T11:40:01;11.07;;;5.78;;
34767;SDS011;21755;43.608;1.236;2023-04-29T11:42:27;8.35;;;5.85;;
34767;SDS011;21755;43.608;1.236;2023-04-29T11:44:53;10.73;;;6.03;;
34767;SDS011;21755;43.608;1.236;2023-04-29T11:47:27;11.85;;;6.05;;
34767;SDS011;21755;43.608;1.236;2023-04-29T11:50:04;11.60;;;6.38;;
34767;SDS011;21755;43.608;1.236;2023-04-29T11:52:33;10.13;;;5.85;;
34767;SDS011;21755;43.608;1.236;2023-04-29T11:55:01;11.55;;;5.95;;
34767;SDS011;21755;43.608;1.236;2023-04-29T11:57:27;11.40;;;6.05;;
34767;SDS011;21755;43.608;1.236;2023-04-29T11:59:53;9.32;;;5.20;;
34767;SDS011;21755;43.608;1.236;2023-04-29T12:02:21;7.47;;;4.78;;
34767;SDS011;21755;43.608;1.236;2023-04-29T12:04:48;10.02;;;5.10;;
34767;SDS011;21755;43.608;1.236;2023-04-29T12:07:16;9.90;;;4.97;;
34767;SDS011;21755;43.608;1.236;2023-04-29T12:09:43;9.02;;;5.18;;
34767;SDS011;21755;43.608;1.236;2023-04-29T12:12:09;8.77;;;5.20;;
34767;SDS011;21755;43.608;1.236;2023-04-29T12:14:36;5.93;;;4.93;;
34767;SDS011;21755;43.608;1.236;2023-04-29T12:17:03;8.30;;;4.82;;
34767;SDS011;21755;43.608;1.236;2023-04-29T12:19:30;8.25;;;4.88;;
34767;SDS011;21755;43.608;1.236;2023-04-29T12:21:59;11.23;;;5.22;;
34767;SDS011;21755;43.608;1.236;2023-04-29T12:24:25;6.55;;;4.45;;
34767;SDS011;21755;43.608;1.236;2023-04-29T12:26:51;4.90;;;4.00;;
34767;SDS011;21755;43.608;1.236;2023-04-29T12:29:21;10.55;;;4.47;;
34767;SDS011;21755;43.608;1.236;2023-04-29T12:31:47;9.57;;;4.78;;
34767;SDS011;21755;43.608;1.236;2023-04-29T12:34:15;11.02;;;5.47;;
34767;SDS011;21755;43.608;1.236;2023-04-29T12:36:41;9.07;;;5.07;;
34767;SDS011;21755;43.608;1.236;2023-04-29T12:39:09;6.40;;;4.25;;
34767;SDS011;21755;43.608;1.236;2023-04-29T12:41:38;9.30;;;4.47;;
34767;SDS011;21755;43.608;1.236;2023-04-29T12:44:05;8.20;;;4.70;;
34767;SDS011;21755;43.608;1.236;2023-04-29T12:46:35;9.65;;;5.32;;
34767;SDS011;21755;43.608;1.236;2023-04-29T12:49:02;12.02;;;5.40;;
34767;SDS011;21755;43.608;1.236;2023-04-29T12:51:29;14.60;;;5.20;;
34767;SDS011;21755;43.608;1.236;2023-04-29T12:53:59;8.02;;;5.00;;
34767;SDS011;21755;43.608;1.236;2023-04-29T12:56:27;8.75;;;4.82;;
34767;SDS011;21755;43.608;1.236;2023-04-29T12:59:03;7.38;;;4.25;;
34767;SDS011;21755;43.608;1.236;2023-04-29T13:01:31;5.93;;;4.13;;
34767;SDS011;21755;43.608;1.236;2023-04-29T13:03:57;9.15;;;4.50;;
34767;SDS011;21755;43.608;1.236;2023-04-29T13:06:23;6.18;;;3.95;;
34767;SDS011;21755;43.608;1.236;2023-04-29T13:08:49;5.20;;;3.53;;
34767;SDS011;21755;43.608;1.236;2023-04-29T13:11:16;4.25;;;2.72;;
34767;SDS011;21755;43.608;1.236;2023-04-29T13:13:42;5.70;;;3.30;;
34767;SDS011;21755;43.608;1.236;2023-04-29T13:16:08;4.82;;;3.25;;
34767;SDS011;21755;43.608;1.236;2023-04-29T13:18:34;5.10;;;2.80;;
34767;SDS011;21755;43.608;1.236;2023-04-29T13:21:00;8.73;;;4.38;;
34767;SDS011;21755;43.608;1.236;2023-04-29T13:23:26;8.77;;;2.92;;
34767;SDS011;21755;43.608;1.236;2023-04-29T13:25:52;3.78;;;2.83;;
34767;SDS011;21755;43.608;1.236;2023-04-29T13:28:18;4.20;;;2.90;;
34767;SDS011;21755;43.608;1.236;2023-04-29T13:30:44;5.50;;;3.03;;
34767;SDS011;21755;43.608;1.236;2023-04-29T13:33:10;4.20;;;2.95;;
34767;SDS011;21755;43.608;1.236;2023-04-29T13:35:37;4.63;;;3.03;;
34767;SDS011;21755;43.608;1.236;2023-04-29T13:38:04;3.95;;;3.20;;
34767;SDS011;21755;43.608;1.236;2023-04-29T13:40:30;4.75;;;2.85;;
34767;SDS011;21755;43.608;1.236;2023-04-29T13:42:56;6.78;;;3.20;;
34767;SDS011;21755;43.608;1.236;2023-04-29T13:45:21;4.63;;;2.97;;
34767;SDS011;21755;43.608;1.236;2023-04-29T13:47:47;5.40;;;3.38;;
34767;SDS011;21755;43.608;1.236;2023-04-29T13:50:13;4.50;;;2.55;;
34767;SDS011;21755;43.608;1.236;2023-04-29T13:52:39;6.18;;;2.70;;
34767;SDS011;21755;43.608;1.236;2023-04-29T13:55:05;7.20;;;2.40;;
34767;SDS011;21755;43.608;1.236;2023-04-29T13:57:32;8.95;;;2.60;;
34767;SDS011;21755;43.608;1.236;2023-04-29T13:59:58;3.70;;;2.50;;
34767;SDS011;21755;43.608;1.236;2023-04-29T14:02:24;2.78;;;2.20;;
34767;SDS011;21755;43.608;1.236;2023-04-29T14:04:51;3.50;;;2.47;;
34767;SDS011;21755;43.608;1.236;2023-04-29T14:07:17;3.38;;;2.58;;
34767;SDS011;21755;43.608;1.236;2023-04-29T14:09:43;3.20;;;2.60;;
34767;SDS011;21755;43.608;1.236;2023-04-29T14:12:08;7.72;;;2.85;;
34767;SDS011;21755;43.608;1.236;2023-04-29T14:14:34;4.57;;;2.60;;
34767;SDS011;21755;43.608;1.236;2023-04-29T14:17:00;3.05;;;2.33;;
34767;SDS011;21755;43.608;1.236;2023-04-29T14:19:27;3.17;;;2.58;;
34767;SDS011;21755;43.608;1.236;2023-04-29T14:21:53;5.25;;;3.30;;
34767;SDS011;21755;43.608;1.236;2023-04-29T14:24:19;4.22;;;2.58;;
34767;SDS011;21755;43.608;1.236;2023-04-29T14:26:46;3.13;;;2.45;;
34767;SDS011;21755;43.608;1.236;2023-04-29T14:29:12;5.90;;;2.65;;
34767;SDS011;21755;43.608;1.236;2023-04-29T14:31:38;3.75;;;2.67;;
34767;SDS011;21755;43.608;1.236;2023-04-29T14:34:04;4.30;;;3.25;;
34767;SDS011;21755;43.608;1.236;2023-04-29T14:36:30;4.07;;;2.85;;
34767;SDS011;21755;43.608;1.236;2023-04-29T14:38:59;3.97;;;3.00;;
34767;SDS011;21755;43.608;1.236;2023-04-29T14:41:25;3.70;;;3.28;;
34767;SDS011;21755;43.608;1.236;2023-04-29T14:43:52;2.88;;;2.53;;
34767;SDS011;21755;43.608;1.236;2023-04-29T14:46:18;3.55;;;3.00;;
34767;SDS011;21755;43.608;1.236;2023-04-29T14:48:46;4.88;;;2.92;;
34767;SDS011;21755;43.608;1.236;2023-04-29T14:51:12;3.50;;;2.70;;
34767;SDS011;21755;43.608;1.236;2023-04-29T14:53:38;5.30;;;2.90;;
34767;SDS011;21755;43.608;1.236;2023-04-29T14:56:04;4.00;;;2.80;;
34767;SDS011;21755;43.608;1.236;2023-04-29T14:58:31;3.88;;;2.80;;
34767;SDS011;21755;43.608;1.236;2023-04-29T15:00:57;3.83;;;3.15;;
34767;SDS011;21755;43.608;1.236;2023-04-29T15:03:22;4.07;;;3.15;;
34767;SDS011;21755;43.608;1.236;2023-04-29T15:05:49;4.55;;;3.22;;
34767;SDS011;21755;43.608;1.236;2023-04-29T15:08:15;6.57;;;3.17;;
34767;SDS011;21755;43.608;1.236;2023-04-29T15:10:42;4.35;;;3.10;;